createdAt,value
2023-01-20T00:03:01.792Z,2.93
2023-01-20T00:06:04.930Z,2.87
2023-01-20T00:09:06.623Z,2.95
2023-01-20T00:12:09.208Z,3.00
2023-01-20T00:15:12.359Z,3.03
2023-01-20T00:18:15.543Z,3.03
2023-01-20T00:21:17.308Z,3.03
2023-01-20T00:24:19.949Z,2.90
2023-01-20T00:27:21.363Z,2.84
2023-01-20T00:30:24.678Z,2.85
2023-01-20T00:33:26.236Z,2.86
2023-01-20T00:36:32.483Z,2.80
2023-01-20T00:39:34.012Z,2.84
2023-01-20T00:42:37.093Z,2.84
2023-01-20T00:45:40.612Z,2.83
2023-01-20T00:48:43.392Z,2.81
2023-01-20T00:51:46.133Z,2.76
2023-01-20T00:54:47.730Z,2.90
2023-01-20T00:57:50.464Z,2.83
2023-01-20T01:00:54.407Z,2.89
2023-01-20T01:03:57.087Z,2.90
2023-01-20T01:06:59.730Z,2.89
2023-01-20T01:10:06.318Z,2.96
2023-01-20T01:13:08.260Z,2.94
2023-01-20T01:16:13.387Z,2.98
2023-01-20T01:19:18.677Z,2.92
2023-01-20T01:22:20.495Z,2.89
2023-01-20T01:25:23.266Z,2.85
2023-01-20T01:28:25.973Z,2.86
2023-01-20T01:31:28.018Z,2.80
2023-01-20T01:34:30.980Z,2.75
2023-01-20T01:37:32.327Z,2.83
2023-01-20T01:40:36.009Z,2.83
2023-01-20T01:43:38.683Z,2.76
2023-01-20T01:46:42.766Z,2.70
2023-01-20T01:49:44.513Z,2.66
2023-01-20T01:52:49.932Z,2.62
2023-01-20T01:55:55.868Z,2.63
2023-01-20T01:59:01.362Z,2.62
2023-01-20T02:02:03.536Z,2.65
2023-01-20T02:05:07.093Z,2.52
2023-01-20T02:08:10.019Z,2.53
2023-01-20T02:11:11.355Z,2.54
2023-01-20T02:14:12.687Z,2.56
2023-01-20T02:17:26.451Z,2.68
2023-01-20T02:20:50.466Z,2.52
2023-01-20T02:24:32.526Z,2.57
2023-01-20T02:28:00.377Z,2.59
2023-01-20T02:31:24.551Z,2.66
2023-01-20T02:34:32.449Z,2.62
2023-01-20T02:37:45.064Z,2.55
2023-01-20T02:40:55.376Z,2.53
2023-01-20T02:44:03.513Z,2.62
2023-01-20T02:47:13.368Z,2.65
2023-01-20T02:50:22.571Z,2.66
2023-01-20T02:53:29.695Z,2.70
2023-01-20T02:56:35.160Z,2.71
2023-01-20T02:59:42.824Z,2.69
2023-01-20T03:02:48.114Z,2.57
2023-01-20T03:05:56.528Z,2.60
2023-01-20T03:09:00.983Z,2.55
2023-01-20T03:12:12.767Z,2.59
2023-01-20T03:15:16.278Z,2.40
2023-01-20T03:18:19.066Z,2.40
2023-01-20T03:21:21.640Z,2.48
2023-01-20T03:24:25.170Z,2.47
2023-01-20T03:27:26.738Z,2.51
2023-01-20T03:30:29.406Z,2.50
2023-01-20T03:33:30.880Z,2.45
2023-01-20T03:36:35.173Z,2.49
2023-01-20T03:39:39.101Z,2.51
2023-01-20T03:42:48.221Z,2.47
2023-01-20T03:45:55.099Z,2.50
2023-01-20T03:49:07.467Z,2.49
2023-01-20T03:52:17.969Z,2.44
2023-01-20T03:55:24.976Z,2.41
2023-01-20T03:58:32.563Z,2.40
2023-01-20T04:01:36.846Z,2.45
2023-01-20T04:04:41.727Z,2.27
2023-01-20T04:07:46.586Z,2.26
2023-01-20T04:10:49.704Z,2.34
2023-01-20T04:13:52.425Z,2.42
2023-01-20T04:16:57.455Z,2.39
2023-01-20T04:20:04.755Z,2.26
2023-01-20T04:23:11.372Z,2.11
2023-01-20T04:26:12.863Z,2.08
2023-01-20T04:29:15.753Z,2.10
2023-01-20T04:32:17.328Z,2.13
2023-01-20T04:35:19.785Z,2.06
2023-01-20T04:38:21.786Z,2.05
2023-01-20T04:41:24.524Z,2.04
2023-01-20T04:44:26.331Z,1.98
2023-01-20T04:47:30.214Z,2.00
2023-01-20T04:50:31.910Z,1.91
2023-01-20T04:53:35.664Z,1.95
2023-01-20T04:56:38.418Z,1.95
2023-01-20T04:59:41.372Z,2.00
2023-01-20T05:02:42.936Z,1.85
2023-01-20T05:05:52.673Z,1.74
2023-01-20T05:08:54.898Z,1.86
2023-01-20T05:11:56.849Z,1.83
2023-01-20T05:14:58.229Z,1.79
2023-01-20T05:18:01.053Z,1.85
2023-01-20T05:21:03.885Z,1.92
2023-01-20T05:24:06.746Z,1.95
2023-01-20T05:27:08.413Z,2.02
2023-01-20T05:30:11.229Z,1.73
2023-01-20T05:33:12.567Z,1.87
2023-01-20T05:36:15.385Z,1.86
2023-01-20T05:39:17.407Z,1.80
2023-01-20T05:42:19.972Z,1.65
2023-01-20T05:45:21.230Z,1.61
2023-01-20T05:48:22.643Z,1.64
2023-01-20T05:51:25.202Z,1.72
2023-01-20T05:54:27.166Z,1.80
2023-01-20T05:57:28.568Z,1.82
2023-01-20T06:00:31.474Z,1.69
2023-01-20T06:03:32.928Z,1.51
2023-01-20T06:06:35.554Z,1.72
2023-01-20T06:09:37.509Z,1.59
2023-01-20T06:12:40.096Z,1.57
2023-01-20T06:15:41.389Z,1.65
2023-01-20T06:18:44.095Z,1.60
2023-01-20T06:21:47.177Z,1.64
2023-01-20T06:24:50.468Z,1.58
2023-01-20T06:27:51.877Z,1.59
2023-01-20T06:30:59.113Z,1.56
2023-01-20T06:40:43.435Z,1.53
2023-01-20T06:43:45.074Z,1.55
2023-01-20T06:46:48.299Z,1.51
2023-01-20T06:49:50.817Z,1.44
2023-01-20T06:52:54.685Z,1.47
2023-01-20T06:55:58.131Z,1.50
2023-01-20T06:58:59.479Z,1.50
2023-01-20T07:02:00.903Z,1.32
2023-01-20T07:05:03.881Z,1.31
2023-01-20T07:08:07.033Z,1.37
2023-01-20T07:11:09.297Z,1.37
2023-01-20T07:14:10.827Z,1.41
2023-01-20T07:17:12.565Z,1.29
2023-01-20T07:20:14.111Z,1.26
2023-01-20T07:23:16.824Z,1.29
2023-01-20T07:26:20.511Z,1.40
2023-01-20T07:29:40.925Z,1.40
2023-01-20T07:32:42.370Z,1.42
2023-01-20T07:35:45.454Z,1.52
2023-01-20T07:42:09.960Z,1.74
2023-01-20T07:45:11.476Z,1.59
2023-01-20T07:48:12.871Z,1.53
2023-01-20T07:51:15.665Z,1.56
2023-01-20T07:54:18.487Z,1.53
2023-01-20T07:57:20.809Z,1.57
2023-01-20T08:00:22.521Z,1.50
2023-01-20T08:03:27.428Z,1.55
2023-01-20T08:06:29.645Z,1.68
2023-01-20T08:09:32.139Z,1.65
2023-01-20T08:12:34.128Z,1.65
2023-01-20T08:15:35.464Z,1.66
2023-01-20T08:18:37.241Z,1.53
2023-01-20T08:21:39.792Z,1.62
2023-01-20T08:24:41.148Z,1.72
2023-01-20T08:27:44.350Z,1.76
2023-01-20T08:30:45.699Z,1.87
2023-01-20T08:33:49.456Z,1.88
2023-01-20T08:36:53.241Z,1.96
2023-01-20T08:43:17.216Z,2.04
2023-01-20T08:46:22.039Z,2.11
2023-01-20T08:52:44.580Z,2.21
2023-01-20T08:55:56.008Z,2.30
2023-01-20T08:58:58.980Z,2.34
2023-01-20T09:02:01.841Z,2.40
2023-01-20T09:08:26.233Z,2.35
2023-01-20T09:11:28.808Z,2.35
2023-01-20T09:14:32.152Z,2.38
2023-01-20T09:17:34.351Z,2.38
2023-01-20T09:20:37.775Z,2.38
2023-01-20T09:23:40.414Z,2.41
2023-01-20T09:26:42.976Z,2.33
2023-01-20T09:29:46.144Z,2.43
2023-01-20T09:32:49.075Z,2.28
2023-01-20T09:35:55.318Z,2.26
2023-01-20T09:39:14.658Z,2.18
2023-01-20T09:42:48.339Z,2.33
2023-01-20T09:45:57.568Z,2.52
2023-01-20T09:49:30.598Z,2.45
2023-01-20T09:52:54.909Z,2.35
2023-01-20T09:55:59.368Z,2.41
2023-01-20T09:59:08.075Z,2.45
2023-01-20T10:02:18.693Z,2.57
2023-01-20T10:05:23.338Z,2.59
2023-01-20T10:08:31.993Z,2.69
2023-01-20T10:11:39.109Z,2.73
2023-01-20T10:14:44.489Z,2.69
2023-01-20T10:17:52.378Z,2.70
2023-01-20T10:20:59.305Z,2.65
2023-01-20T10:24:08.399Z,2.39
2023-01-20T10:27:09.761Z,2.61
2023-01-20T10:30:14.820Z,2.71
2023-01-20T10:33:24.407Z,2.66
2023-01-20T10:36:29.019Z,2.71
2023-01-20T10:39:39.293Z,2.84
2023-01-20T10:42:41.050Z,3.01
2023-01-20T10:46:06.467Z,2.94
2023-01-20T10:49:36.741Z,2.92
2023-01-20T10:56:27.993Z,3.17
2023-01-20T10:59:34.060Z,3.27
2023-01-20T11:02:38.449Z,3.24
2023-01-20T11:05:42.899Z,3.29
2023-01-20T11:08:44.570Z,3.24
2023-01-20T11:11:48.120Z,3.37
2023-01-20T11:14:49.629Z,3.38
2023-01-20T11:18:28.315Z,3.40
2023-01-20T11:21:32.697Z,3.47
2023-01-20T11:24:42.408Z,3.35
2023-01-20T11:27:46.822Z,3.39
2023-01-20T11:30:52.818Z,3.42
2023-01-20T11:37:21.146Z,3.41
2023-01-20T11:40:24.477Z,3.48
2023-01-20T11:43:31.761Z,3.51
2023-01-20T11:46:35.671Z,3.41
2023-01-20T11:49:38.488Z,3.57
2023-01-20T11:52:42.849Z,3.58
2023-01-20T11:55:50.038Z,3.56
2023-01-20T11:58:56.548Z,3.64
2023-01-20T12:02:00.888Z,3.32
2023-01-20T12:05:10.962Z,3.29
2023-01-20T12:08:18.644Z,3.38
2023-01-20T12:11:28.474Z,3.32
2023-01-20T12:14:33.771Z,3.34
2023-01-20T12:17:51.078Z,3.38
2023-01-20T12:20:59.868Z,3.51
2023-01-20T12:24:10.005Z,3.48
2023-01-20T12:30:48.740Z,3.55
2023-01-20T12:33:56.759Z,3.43
2023-01-20T12:37:06.173Z,3.37
2023-01-20T12:40:20.483Z,3.31
2023-01-20T12:43:39.783Z,3.36
2023-01-20T12:46:45.538Z,3.38
2023-01-20T12:50:18.459Z,3.54
2023-01-20T12:53:32.068Z,3.61
2023-01-20T12:56:46.448Z,3.82
2023-01-20T13:00:11.727Z,3.58
2023-01-20T13:04:00.205Z,3.47
2023-01-20T13:07:16.852Z,3.61
2023-01-20T13:10:45.879Z,3.68
2023-01-20T13:14:03.482Z,3.66
2023-01-20T13:17:14.187Z,3.71
2023-01-20T13:20:23.695Z,3.58
2023-01-20T13:23:28.003Z,3.58
2023-01-20T13:26:30.952Z,3.44
2023-01-20T13:29:53.454Z,3.53
2023-01-20T13:33:03.473Z,3.63
2023-01-20T13:36:21.392Z,3.56
2023-01-20T13:39:40.026Z,3.54
2023-01-20T13:42:55.079Z,3.47
2023-01-20T13:46:29.701Z,3.44
2023-01-20T13:49:50.641Z,3.59
2023-01-20T13:53:25.999Z,3.48
2023-01-20T13:56:29.628Z,3.50
2023-01-20T13:59:32.273Z,3.49
2023-01-20T14:02:36.512Z,3.47
2023-01-20T14:05:40.970Z,3.46
2023-01-20T14:08:46.323Z,3.47
2023-01-20T14:11:52.648Z,3.47
2023-01-20T14:14:54.589Z,3.51
2023-01-20T14:17:58.472Z,3.49
2023-01-20T14:21:04.637Z,3.50
2023-01-20T14:24:07.469Z,3.46
2023-01-20T14:27:14.297Z,3.39
2023-01-20T14:30:20.496Z,3.45
2023-01-20T14:33:23.208Z,3.41
2023-01-20T14:36:30.315Z,3.39
2023-01-20T14:39:33.801Z,3.32
2023-01-20T14:42:39.081Z,3.36
2023-01-20T14:45:43.257Z,3.30
2023-01-20T14:48:45.811Z,3.40
2023-01-20T14:51:50.813Z,3.19
2023-01-20T14:54:55.699Z,3.23
2023-01-20T14:57:59.911Z,3.23
2023-01-20T15:01:03.920Z,3.22
2023-01-20T15:04:06.708Z,3.25
2023-01-20T15:07:17.986Z,3.26
2023-01-20T15:10:20.734Z,3.29
2023-01-20T15:13:25.308Z,3.03
2023-01-20T15:16:28.755Z,2.98
2023-01-20T15:19:33.534Z,3.00
2023-01-20T15:22:35.496Z,3.07
2023-01-20T15:25:37.203Z,3.15
2023-01-20T15:28:43.893Z,3.12
2023-01-20T15:31:45.310Z,3.08
2023-01-20T15:34:47.655Z,3.10
2023-01-20T15:37:50.327Z,3.04
2023-01-20T15:40:52.885Z,2.99
2023-01-20T15:43:55.453Z,2.93
2023-01-20T15:46:57.796Z,2.87
2023-01-20T15:50:00.409Z,2.78
2023-01-20T15:53:02.787Z,2.72
2023-01-20T15:56:05.570Z,2.73
2023-01-20T15:59:12.292Z,2.69
2023-01-20T16:02:17.903Z,2.72
2023-01-20T16:05:19.229Z,2.72
2023-01-20T16:08:23.118Z,2.74
2023-01-20T16:11:24.461Z,2.67
2023-01-20T16:17:45.554Z,2.66
2023-01-20T16:20:48.956Z,2.61
2023-01-20T16:23:50.991Z,2.49
2023-01-20T16:26:52.278Z,2.41
2023-01-20T16:29:55.175Z,2.41
2023-01-20T16:32:57.753Z,2.37
2023-01-20T16:36:00.452Z,2.35
2023-01-20T16:39:02.596Z,2.34
2023-01-20T16:42:04.082Z,2.38
2023-01-20T16:45:14.359Z,2.34
2023-01-20T16:48:15.783Z,2.39
2023-01-20T16:51:19.439Z,2.38
2023-01-20T16:54:22.706Z,2.38
2023-01-20T16:57:24.301Z,2.36
2023-01-20T17:00:25.832Z,2.36
2023-01-20T17:03:27.259Z,2.35
2023-01-20T17:06:30.232Z,2.38
2023-01-20T17:09:32.307Z,2.33
2023-01-20T17:12:34.886Z,2.41
2023-01-20T17:15:40.995Z,2.35
2023-01-20T17:18:44.784Z,2.34
2023-01-20T17:21:47.400Z,2.40
2023-01-20T17:24:49.383Z,2.43
2023-01-20T17:27:52.072Z,2.28
2023-01-20T17:30:54.460Z,2.32
2023-01-20T17:33:55.929Z,2.30
2023-01-20T17:36:57.332Z,2.32
2023-01-20T17:40:00.864Z,2.35
2023-01-20T17:43:03.478Z,2.47
2023-01-20T17:46:13.282Z,2.24
2023-01-20T17:49:14.763Z,2.22
2023-01-20T17:52:19.499Z,2.21
2023-01-20T17:55:22.700Z,2.31
2023-01-20T17:58:24.156Z,2.19
2023-01-20T18:01:28.754Z,2.11
2023-01-20T18:04:31.325Z,2.18
2023-01-20T18:07:32.685Z,2.14
2023-01-20T18:10:36.010Z,2.11
2023-01-20T18:13:39.470Z,2.04
2023-01-20T18:16:41.374Z,2.01
2023-01-20T18:19:43.062Z,2.04
2023-01-20T18:22:48.113Z,2.21
2023-01-20T18:25:53.426Z,2.11
2023-01-20T18:28:56.500Z,2.03
2023-01-20T18:32:01.915Z,1.99
2023-01-20T18:35:04.224Z,1.97
2023-01-20T18:38:07.263Z,1.91
2023-01-20T18:41:10.021Z,1.94
2023-01-20T18:44:13.027Z,1.97
2023-01-20T18:47:14.728Z,1.92
2023-01-20T18:50:18.001Z,1.94
2023-01-20T18:53:19.593Z,1.98
2023-01-20T18:56:23.396Z,2.03
2023-01-20T18:59:24.959Z,2.15
2023-01-20T19:05:47.584Z,1.98
2023-01-20T19:08:50.829Z,1.92
2023-01-20T19:11:52.834Z,2.06
2023-01-20T19:14:55.708Z,2.03
2023-01-20T19:17:57.094Z,1.99
2023-01-20T19:21:05.254Z,2.02
2023-01-20T19:24:07.259Z,2.00
2023-01-20T19:27:10.497Z,2.00
2023-01-20T19:30:12.635Z,2.03
2023-01-20T19:33:16.666Z,2.05
2023-01-20T19:36:19.315Z,2.21
2023-01-20T19:39:20.644Z,1.97
2023-01-20T19:42:24.873Z,1.88
2023-01-20T19:45:40.332Z,1.81
2023-01-20T19:48:46.364Z,1.75
2023-01-20T19:51:47.728Z,1.73
2023-01-20T19:54:51.660Z,1.74
2023-01-20T19:57:55.419Z,1.80
2023-01-20T20:01:05.523Z,1.82
2023-01-20T20:04:09.686Z,1.68
2023-01-20T20:07:12.847Z,1.66
2023-01-20T20:10:16.970Z,1.63
2023-01-20T20:13:19.326Z,1.72
2023-01-20T20:16:21.485Z,1.61
2023-01-20T20:19:24.100Z,1.66
2023-01-20T20:22:26.657Z,1.73
2023-01-20T20:25:28.004Z,1.69
2023-01-20T20:28:31.639Z,1.60
2023-01-20T20:31:36.159Z,1.63
2023-01-20T20:34:37.574Z,1.64
2023-01-20T20:37:39.992Z,1.54
2023-01-20T20:40:42.598Z,1.54
2023-01-20T20:43:45.912Z,1.52
2023-01-20T20:46:48.103Z,1.54
2023-01-20T20:49:50.891Z,1.44
2023-01-20T20:52:52.336Z,1.46
2023-01-20T20:59:23.975Z,1.41
2023-01-20T21:02:25.667Z,1.28
2023-01-20T21:05:27.051Z,1.28
2023-01-20T21:08:28.924Z,1.34
2023-01-20T21:11:30.446Z,1.37
2023-01-20T21:14:32.438Z,1.34
2023-01-20T21:17:33.745Z,1.43
2023-01-20T21:20:36.372Z,1.43
2023-01-20T21:23:39.830Z,1.37
2023-01-20T21:30:04.378Z,1.48
2023-01-20T21:33:05.796Z,1.38
2023-01-20T21:36:09.107Z,1.43
2023-01-20T21:39:11.797Z,1.45
2023-01-20T21:42:14.329Z,1.41
2023-01-20T21:45:17.658Z,1.42
2023-01-20T21:48:38.277Z,1.41
2023-01-20T21:51:59.412Z,1.45
2023-01-20T21:55:01.401Z,1.56
2023-01-20T21:58:03.971Z,1.36
2023-01-20T22:01:06.035Z,1.39
2023-01-20T22:04:08.724Z,1.40
2023-01-20T22:07:10.537Z,1.36
2023-01-20T22:10:13.669Z,1.27
2023-01-20T22:13:17.064Z,1.32
2023-01-20T22:16:19.341Z,1.31
2023-01-20T22:19:21.974Z,1.15
2023-01-20T22:22:23.294Z,1.14
2023-01-20T22:25:25.838Z,1.24
2023-01-20T22:28:30.219Z,1.33
2023-01-20T22:31:33.266Z,1.26
2023-01-20T22:34:35.802Z,1.16
2023-01-20T22:37:38.596Z,1.26
2023-01-20T22:40:39.928Z,1.28
2023-01-20T22:43:44.559Z,1.29
2023-01-20T22:46:46.542Z,1.24
2023-01-20T22:49:49.052Z,1.26
2023-01-20T22:52:50.390Z,1.22
2023-01-20T22:56:00.924Z,1.24
2023-01-20T22:59:02.606Z,1.24
2023-01-20T23:02:05.887Z,1.37
2023-01-20T23:05:07.858Z,1.18
2023-01-20T23:11:32.127Z,1.08
2023-01-20T23:14:52.683Z,1.02
2023-01-20T23:17:55.080Z,0.84
2023-01-20T23:20:58.035Z,0.99
2023-01-20T23:24:00.694Z,1.11
2023-01-20T23:27:02.012Z,1.06
2023-01-20T23:30:06.258Z,0.95
2023-01-20T23:33:09.325Z,0.95
2023-01-20T23:36:14.649Z,0.92
2023-01-20T23:39:17.251Z,0.82
2023-01-20T23:42:18.935Z,0.83
2023-01-20T23:45:21.584Z,0.99
2023-01-20T23:48:23.708Z,0.80
2023-01-20T23:51:26.353Z,0.84
2023-01-20T23:54:29.189Z,0.84
2023-01-20T23:57:30.515Z,0.91
